Time;durP1;ratioP1;P1;durP2;ratioP2;P2;SDS_P1;SDS_P2;PMS_P1;PMS_P2;Temp;Humidity;BMP_temperature;BMP_pressure;BME280_temperature;BME280_humidity;BME280_pressure;Samples;Min_cycle;Max_cycle;Signal;HPM_P1;HPM_P2
2023/01/18 00:00:33;;;;;;;7.68;6.03;;;8.90;78.00;;;;;;5053781;28;20037;-72
2023/01/18 00:02:59;;;;;;;6.65;5.15;;;8.90;77.90;;;;;;5053715;28;20029;-72
2023/01/18 00:05:24;;;;;;;7.13;5.45;;;8.90;77.90;;;;;;5053348;28;20029;-71
2023/01/18 00:07:53;;;;;;;7.47;5.88;;;8.90;77.90;;;;;;5053318;28;20057;-71
2023/01/18 00:10:21;;;;;;;6.75;5.75;;;8.90;77.90;;;;;;5053431;28;20029;-72
2023/01/18 00:12:47;;;;;;;7.03;5.18;;;8.90;77.90;;;;;;5053298;28;20028;-72
2023/01/18 00:15:13;;;;;;;6.30;5.28;;;8.90;77.80;;;;;;5053566;28;20366;-72
2023/01/18 00:17:46;;;;;;;6.90;5.45;;;8.90;77.80;;;;;;5053610;28;20056;-72
2023/01/18 00:20:15;;;;;;;6.60;5.40;;;8.90;77.80;;;;;;5053555;28;20094;-72
2023/01/18 00:22:41;;;;;;;7.28;5.70;;;8.90;77.70;;;;;;5053481;28;20036;-72
2023/01/18 00:25:09;;;;;;;7.22;5.47;;;8.90;77.70;;;;;;5053406;28;20033;-72
2023/01/18 00:27:36;;;;;;;7.75;6.20;;;8.90;77.70;;;;;;5053421;28;20032;-72
2023/01/18 00:30:04;;;;;;;6.45;5.43;;;8.90;77.70;;;;;;5053438;28;20481;-72
2023/01/18 00:32:29;;;;;;;6.07;5.30;;;8.90;77.60;;;;;;5053497;28;20348;-72
2023/01/18 00:34:55;;;;;;;6.88;5.32;;;8.90;77.60;;;;;;5053263;28;20021;-72
2023/01/18 00:37:23;;;;;;;6.93;5.60;;;8.90;77.60;;;;;;5053401;28;20032;-72
2023/01/18 00:39:49;;;;;;;6.60;5.55;;;8.90;77.60;;;;;;5053283;28;20096;-71
2023/01/18 00:44:58;;;;;;;5.93;5.33;;;8.90;77.50;;;;;;5053145;28;20075;-72
2023/01/18 00:47:24;;;;;;;6.30;5.35;;;8.90;77.50;;;;;;5053002;28;20033;-72
2023/01/18 00:49:50;;;;;;;6.60;5.50;;;8.90;77.50;;;;;;5053308;28;20393;-72
2023/01/18 00:52:16;;;;;;;6.00;5.15;;;8.90;77.50;;;;;;5053943;28;20493;-72
2023/01/18 00:54:41;;;;;;;7.18;5.90;;;8.90;77.40;;;;;;5057000;28;20481;-71
2023/01/18 00:57:07;;;;;;;5.60;4.85;;;8.90;77.40;;;;;;5037798;28;20057;-71
2023/01/18 00:59:33;;;;;;;6.75;4.93;;;8.90;77.40;;;;;;5036662;28;20086;-72
2023/01/18 01:01:58;;;;;;;6.00;5.05;;;8.90;77.40;;;;;;5037107;28;20025;-72
2023/01/18 01:07:08;;;;;;;5.90;5.10;;;8.90;77.30;;;;;;5036535;28;20080;-72
2023/01/18 01:09:34;;;;;;;6.10;4.95;;;8.90;77.30;;;;;;5037553;28;20712;-72
2023/01/18 01:26:07;;;;;;;5.97;5.25;;;8.90;77.10;;;;;;5036700;28;20067;-72
2023/01/18 01:28:53;;;;;;;7.05;4.95;;;8.90;77.10;;;;;;5036620;28;20038;-72
2023/01/18 01:31:19;;;;;;;6.38;5.20;;;8.90;77.00;;;;;;5035998;28;20030;-72
2023/01/18 01:33:47;;;;;;;6.22;4.93;;;8.90;77.10;;;;;;5036372;28;20068;-72
2023/01/18 01:36:16;;;;;;;7.18;5.75;;;9.00;77.10;;;;;;5036041;28;20029;-72
2023/01/18 01:38:41;;;;;;;6.72;5.28;;;8.90;77.10;;;;;;5036294;28;20055;-72
2023/01/18 01:41:15;;;;;;;6.18;5.32;;;8.90;77.00;;;;;;5035500;28;20426;-72
2023/01/18 01:43:50;;;;;;;6.63;5.30;;;9.00;77.10;;;;;;5036185;28;20447;-72
2023/01/18 01:46:22;;;;;;;6.00;5.00;;;8.90;77.00;;;;;;5036194;28;20462;-72
2023/01/18 01:48:48;;;;;;;6.03;4.95;;;8.90;77.00;;;;;;5035825;28;20030;-72
2023/01/18 01:51:18;;;;;;;5.65;5.05;;;8.90;77.00;;;;;;5035861;28;20378;-72
2023/01/18 01:53:48;;;;;;;6.35;4.85;;;8.90;77.00;;;;;;5036044;28;20045;-72
2023/01/18 01:56:14;;;;;;;6.85;5.25;;;9.00;77.00;;;;;;5035849;28;20375;-72
2023/01/18 01:58:41;;;;;;;6.20;5.20;;;9.00;77.00;;;;;;5035787;28;20021;-72
2023/01/18 02:01:07;;;;;;;5.80;5.10;;;8.90;76.90;;;;;;5035599;28;20112;-72
2023/01/18 02:03:37;;;;;;;6.88;4.97;;;9.00;77.00;;;;;;5035694;28;20064;-73
2023/01/18 02:06:30;;;;;;;6.13;4.90;;;9.00;77.00;;;;;;5034311;28;20103;-73
2023/01/18 02:09:01;;;;;;;6.57;5.45;;;9.00;76.90;;;;;;5035935;28;20033;-73
2023/01/18 02:11:28;;;;;;;6.40;5.15;;;9.00;76.90;;;;;;5035448;28;20021;-73
2023/01/18 02:13:55;;;;;;;6.05;4.97;;;9.00;76.90;;;;;;5035551;28;20018;-73
2023/01/18 02:16:50;;;;;;;6.20;5.03;;;9.00;76.90;;;;;;5034276;28;20483;-72
2023/01/18 02:19:26;;;;;;;5.88;5.07;;;9.00;76.80;;;;;;5035842;28;20057;-72
2023/01/18 02:21:58;;;;;;;6.40;4.80;;;9.00;76.80;;;;;;5035508;28;20025;-73
2023/01/18 02:24:38;;;;;;;6.32;4.95;;;9.00;76.80;;;;;;5035742;28;20025;-72
2023/01/18 02:27:21;;;;;;;6.10;4.90;;;9.00;76.80;;;;;;5035581;28;20406;-72
2023/01/18 02:30:15;;;;;;;6.35;5.25;;;9.00;76.80;;;;;;5035513;28;20045;-73
2023/01/18 02:32:55;;;;;;;5.60;4.75;;;9.00;76.70;;;;;;5035542;28;20037;-72
2023/01/18 02:35:51;;;;;;;6.20;4.88;;;9.00;76.70;;;;;;5033930;28;20033;-72
2023/01/18 02:38:25;;;;;;;5.65;4.68;;;9.00;76.70;;;;;;5028644;28;20037;-73
2023/01/18 02:41:01;;;;;;;5.60;4.80;;;9.00;76.70;;;;;;5034911;28;20551;-72
2023/01/18 02:46:32;;;;;;;5.97;4.53;;;9.00;76.70;;;;;;5012901;28;20041;-73
2023/01/18 02:49:06;;;;;;;5.80;4.82;;;9.00;76.60;;;;;;5013143;28;20030;-72
2023/01/18 02:51:32;;;;;;;6.68;4.93;;;9.00;76.60;;;;;;5024256;28;20037;-72
2023/01/18 02:53:59;;;;;;;6.70;4.60;;;9.00;76.60;;;;;;5034805;28;20136;-72
2023/01/18 02:56:33;;;;;;;6.00;4.85;;;9.00;76.60;;;;;;5034970;28;20051;-73
2023/01/18 02:59:14;;;;;;;;;;;9.00;76.60;;;;;;5035005;28;20029;-72
2023/01/18 03:01:53;;;;;;;5.35;4.63;;;9.00;76.70;;;;;;5034658;28;19905;-72
2023/01/18 03:04:25;;;;;;;5.50;4.60;;;9.00;76.50;;;;;;5034888;28;20116;-72
2023/01/18 03:06:57;;;;;;;6.15;4.80;;;9.00;76.40;;;;;;5034461;28;20057;-73
2023/01/18 03:09:25;;;;;;;6.40;4.90;;;9.00;76.50;;;;;;5034768;28;20080;-72
2023/01/18 03:12:04;;;;;;;5.65;4.70;;;9.00;76.40;;;;;;5034363;28;20037;-72
2023/01/18 03:14:45;;;;;;;5.47;4.72;;;9.00;76.50;;;;;;5034569;28;20032;-73
2023/01/18 03:17:17;;;;;;;4.97;4.38;;;9.00;76.50;;;;;;5034522;28;20037;-72
2023/01/18 03:25:48;;;;;;;6.20;4.40;;;9.00;76.40;;;;;;5034217;28;20191;-73
2023/01/18 03:34:37;;;;;;;5.70;4.82;;;9.00;76.30;;;;;;5034514;28;20106;-73
2023/01/18 03:37:28;;;;;;;5.78;4.40;;;9.00;76.30;;;;;;5023907;28;20116;-72
2023/01/18 03:40:11;;;;;;;5.20;4.47;;;9.00;76.30;;;;;;5025934;28;20489;-73
2023/01/18 03:43:04;;;;;;;5.97;4.90;;;9.00;76.30;;;;;;5032844;28;20030;-73
2023/01/18 03:45:41;;;;;;;6.47;5.03;;;9.00;76.20;;;;;;5026426;28;20053;-72
2023/01/18 03:48:08;;;;;;;5.80;4.85;;;9.00;76.30;;;;;;5034583;28;20474;-72
2023/01/18 03:50:51;;;;;;;5.30;4.50;;;9.00;76.30;;;;;;5033988;28;20367;-72
2023/01/18 03:53:43;;;;;;;5.10;4.40;;;9.00;76.30;;;;;;5033998;28;20041;-72
2023/01/18 03:56:19;;;;;;;5.05;4.47;;;9.10;76.30;;;;;;5034177;28;20037;-72
2023/01/18 03:58:48;;;;;;;5.40;4.63;;;9.10;76.30;;;;;;5033924;28;20025;-72
2023/01/18 20:06:46;;;;;;;4.28;2.30;;;9.70;81.80;;;;;;5122780;22;20417;-72
2023/01/18 20:09:13;;;;;;;5.00;3.13;;;9.70;80.80;;;;;;5049458;28;20067;-73
2023/01/18 20:11:43;;;;;;;3.17;2.85;;;9.70;81.90;;;;;;5048171;28;20386;-76
2023/01/18 20:14:10;;;;;;;3.42;2.85;;;9.80;82.60;;;;;;5049218;28;20079;-71
2023/01/18 20:16:37;;;;;;;5.07;2.70;;;9.80;83.20;;;;;;5049516;28;20033;-72
2023/01/18 20:19:02;;;;;;;5.45;3.15;;;9.90;83.50;;;;;;5049959;28;20136;-77
2023/01/18 20:21:28;;;;;;;3.88;2.53;;;10.00;83.80;;;;;;5049630;28;20064;-77
2023/01/18 20:23:56;;;;;;;3.40;2.83;;;10.10;84.00;;;;;;5050619;28;20533;-72
2023/01/18 20:26:23;;;;;;;3.60;2.70;;;10.10;84.00;;;;;;5050012;28;20040;-76
2023/01/18 20:28:54;;;;;;;3.03;2.67;;;10.20;84.00;;;;;;5048677;28;20063;-73
2023/01/18 20:31:19;;;;;;;5.40;3.10;;;10.30;84.00;;;;;;5045777;28;20091;-74
2023/01/18 20:33:45;;;;;;;3.70;2.60;;;10.30;83.90;;;;;;5048932;28;20466;-75
2023/01/18 20:36:11;;;;;;;3.83;2.97;;;10.40;83.90;;;;;;5050148;28;20390;-74
2023/01/18 20:38:36;;;;;;;4.80;2.90;;;10.40;83.80;;;;;;5050581;28;20025;-74
2023/01/18 20:41:03;;;;;;;4.80;2.92;;;10.40;83.70;;;;;;5050167;28;20041;-76
2023/01/18 20:43:29;;;;;;;4.20;2.72;;;10.40;83.60;;;;;;5050111;28;20028;-72
2023/01/18 20:45:59;;;;;;;4.90;2.78;;;10.50;83.50;;;;;;5049066;28;20041;-74
2023/01/18 20:48:25;;;;;;;3.85;2.90;;;10.50;83.40;;;;;;5050433;28;20482;-77
2023/01/18 20:50:51;;;;;;;4.80;2.83;;;10.50;83.40;;;;;;5050414;28;20072;-75
2023/01/18 20:53:17;;;;;;;4.90;3.08;;;10.60;83.30;;;;;;5050342;28;20025;-77
2023/01/18 20:55:42;;;;;;;5.95;3.33;;;10.60;83.20;;;;;;5050296;28;20061;-72
2023/01/18 20:58:08;;;;;;;3.00;2.60;;;10.60;83.10;;;;;;5049994;28;20087;-74
2023/01/18 21:00:33;;;;;;;7.07;3.30;;;10.60;83.00;;;;;;5050210;28;20422;-69
2023/01/18 21:02:59;;;;;;;4.93;2.78;;;10.60;83.00;;;;;;5050221;28;20581;-71
2023/01/18 21:05:26;;;;;;;6.38;3.67;;;10.70;83.00;;;;;;5048689;28;20131;-70
2023/01/18 21:07:51;;;;;;;3.15;2.58;;;10.60;82.80;;;;;;5048668;28;20080;-70
2023/01/18 21:10:17;;;;;;;5.55;3.00;;;10.70;82.80;;;;;;5049845;28;20025;-71
2023/01/18 21:12:43;;;;;;;3.60;2.70;;;10.70;82.70;;;;;;5049931;28;20025;-70
2023/01/18 21:15:09;;;;;;;3.80;2.63;;;10.70;82.70;;;;;;5049922;28;20040;-70
2023/01/18 21:17:35;;;;;;;3.88;2.72;;;10.70;82.60;;;;;;5038216;28;20120;-69
2023/01/18 21:20:01;;;;;;;4.53;2.75;;;10.70;82.50;;;;;;5036882;28;20025;-69
2023/01/18 21:22:27;;;;;;;6.40;3.17;;;10.70;82.50;;;;;;5036817;28;20048;-70
2023/01/18 21:24:53;;;;;;;4.57;3.20;;;10.70;82.50;;;;;;5036495;28;20417;-69
2023/01/18 21:27:18;;;;;;;5.47;2.97;;;10.70;82.50;;;;;;5035094;28;20022;-70
2023/01/18 21:29:44;;;;;;;5.55;2.55;;;10.70;82.40;;;;;;5036412;28;20478;-69
2023/01/18 21:32:09;;;;;;;4.32;2.90;;;10.70;82.40;;;;;;5036375;28;20052;-71
2023/01/18 21:34:35;;;;;;;5.97;3.15;;;10.70;82.40;;;;;;5035049;28;20030;-69
2023/01/18 21:37:01;;;;;;;3.83;2.90;;;10.70;82.30;;;;;;5035900;28;20079;-71
2023/01/18 21:39:27;;;;;;;4.95;3.13;;;10.70;82.30;;;;;;5036259;28;20032;-69
2023/01/18 21:47:22;;;;;;;4.72;3.03;;;10.70;82.20;;;;;;5036249;28;20044;-70
2023/01/18 21:55:18;;;;;;;3.65;3.10;;;10.70;82.10;;;;;;5035929;28;20107;-69
2023/01/18 21:57:44;;;;;;;4.60;2.63;;;10.70;82.00;;;;;;5035877;28;20120;-69
2023/01/18 22:00:10;;;;;;;4.07;2.72;;;10.70;82.00;;;;;;5035643;28;20500;-69
2023/01/18 22:02:36;;;;;;;4.55;2.67;;;10.70;82.00;;;;;;5034488;28;20022;-70
2023/01/18 22:05:03;;;;;;;4.28;2.75;;;10.70;81.90;;;;;;5034066;28;20048;-70
2023/01/18 22:07:30;;;;;;;5.68;2.80;;;10.60;81.90;;;;;;5024704;28;20046;-69
2023/01/18 22:09:59;;;;;;;5.15;2.60;;;10.70;81.90;;;;;;5016196;28;20101;-69
2023/01/18 22:12:26;;;;;;;4.55;2.63;;;10.60;81.80;;;;;;5014343;28;20030;-70
2023/01/18 22:14:52;;;;;;;5.70;2.88;;;10.60;81.80;;;;;;5014404;28;20029;-68
2023/01/18 22:17:18;;;;;;;5.13;2.78;;;10.60;81.80;;;;;;5014422;28;20026;-70
2023/01/18 22:19:44;;;;;;;4.20;2.67;;;10.60;81.80;;;;;;5014603;28;20088;-70
2023/01/18 22:22:11;;;;;;;5.50;2.85;;;10.60;81.70;;;;;;5015907;28;20459;-68
2023/01/18 22:24:37;;;;;;;5.70;2.78;;;10.60;81.70;;;;;;5015438;28;20029;-69
2023/01/18 22:27:04;;;;;;;4.93;3.05;;;10.60;81.70;;;;;;5015514;28;20096;-69
2023/01/18 22:29:30;;;;;;;4.43;2.83;;;10.60;81.70;;;;;;5013452;28;20061;-69
2023/01/18 22:31:55;;;;;;;4.35;3.03;;;10.60;81.60;;;;;;5015165;28;20069;-69
2023/01/18 22:34:22;;;;;;;3.42;2.60;;;10.60;81.60;;;;;;5015376;28;20026;-69
2023/01/18 22:36:48;;;;;;;3.25;2.53;;;10.60;81.60;;;;;;5014049;28;20389;-71
2023/01/18 22:39:15;;;;;;;5.13;2.95;;;10.60;81.60;;;;;;5015476;28;20026;-70
2023/01/18 22:41:41;;;;;;;5.43;3.05;;;10.60;81.60;;;;;;5015316;28;20033;-70
2023/01/18 22:44:07;;;;;;;5.45;2.92;;;10.60;81.50;;;;;;5013965;28;20030;-69
2023/01/18 22:46:33;;;;;;;3.33;2.45;;;10.60;81.50;;;;;;5014779;28;20033;-69
2023/01/18 22:48:58;;;;;;;4.20;2.30;;;10.60;81.50;;;;;;5015114;28;20030;-69
2023/01/18 22:51:25;;;;;;;6.78;2.83;;;10.50;81.40;;;;;;5015090;28;20406;-70
2023/01/18 22:53:51;;;;;;;3.80;2.50;;;10.60;81.50;;;;;;5015246;28;20426;-69
2023/01/18 22:56:19;;;;;;;4.68;3.15;;;10.60;81.50;;;;;;5014929;28;20026;-70
2023/01/18 22:58:44;;;;;;;4.30;2.70;;;10.50;81.40;;;;;;5014806;28;20105;-69
2023/01/18 23:01:25;;;;;;;5.50;2.58;;;10.60;81.40;;;;;;5014860;28;20492;-69
2023/01/18 23:03:53;;;;;;;5.32;2.83;;;10.60;81.40;;;;;;5015028;28;20105;-71
2023/01/18 23:06:20;;;;;;;5.55;2.72;;;10.50;81.30;;;;;;5014720;28;20058;-69
2023/01/18 23:08:46;;;;;;;6.30;2.83;;;10.50;81.30;;;;;;5014853;28;20038;-68
2023/01/18 23:11:18;;;;;;;4.68;2.45;;;10.50;81.30;;;;;;5014807;28;20034;-70
2023/01/18 23:19:16;;;;;;;3.47;2.67;;;10.50;81.30;;;;;;5014999;28;20041;-69
2023/01/18 23:21:42;;;;;;;4.13;2.70;;;10.50;81.20;;;;;;5013125;28;20030;-70
2023/01/18 23:24:07;;;;;;;5.28;2.63;;;10.40;81.10;;;;;;5014303;28;20030;-70
2023/01/18 23:26:33;;;;;;;3.90;2.42;;;10.50;81.20;;;;;;5014194;28;20080;-71
2023/01/18 23:28:59;;;;;;;3.85;2.63;;;10.40;81.10;;;;;;5013175;28;20041;-69
2023/01/18 23:31:24;;;;;;;6.07;3.08;;;10.50;81.20;;;;;;5014437;28;20029;-70
2023/01/18 23:33:50;;;;;;;4.30;2.80;;;10.40;81.10;;;;;;5014324;28;20026;-70
2023/01/18 23:36:16;;;;;;;6.32;2.90;;;10.40;81.10;;;;;;5014176;28;20108;-70
2023/01/18 23:55:06;;;;;;;6.45;2.75;;;10.40;81.10;;;;;;5014220;28;20072;-69
2023/01/18 23:57:32;;;;;;;5.38;2.72;;;10.40;81.10;;;;;;5013364;28;20038;-69
2023/01/18 23:59:58;;;;;;;3.65;2.88;;;10.30;81.00;;;;;;5014175;28;20415;-69
